Auburn Hills, Michigan
Current Conditions -  °F | °C
As of 9:55 AM on Monday 22 Dec 2014 (Local Time) from KVLL Reporting Station
Clear Clear  
Wind Chill:   Ceiling: Unl
Heat Index:   Visibility: 7mi
Dew Point: -3°   Wind: 3mph
Humidity: 81%   Direction: 70°ENE
Pressure: 30.1"   Gusts: NA
Location:  42.67°N, 83.22°W
Report Text: KVLL 221455Z AUTO 07003KT 7SM CLR 00/M03 A3010 RMK AO2 T00021027
Loading
Personal Weather Stations






























Interactive Weather Map New forecast layout! Learn more

10-Day Weather Forecast

Advertisements
Track Severe Weather on mobile